Time;durP1;ratioP1;P1;durP2;ratioP2;P2;SDS_P1;SDS_P2;PMS_P1;PMS_P2;Temp;Humidity;BMP_temperature;BMP_pressure;BME280_temperature;BME280_humidity;BME280_pressure;Samples;Min_cycle;Max_cycle;Signal;HPM_P1;HPM_P2
2023/01/30 00:01:42;;;;;;;7.40;4.30;;;-0.20;99.90;;;;;;5054191;28;20787;-60
2023/01/30 00:04:12;;;;;;;5.72;3.50;;;-0.20;99.90;;;;;;5054566;28;20512;-59
2023/01/30 00:06:40;;;;;;;6.03;3.13;;;-0.20;99.90;;;;;;5054750;28;20451;-59
2023/01/30 00:09:07;;;;;;;6.63;4.15;;;-0.20;99.90;;;;;;5054468;28;20528;-59
2023/01/30 00:11:34;;;;;;;8.80;3.87;;;-0.20;99.90;;;;;;5054326;28;20524;-59
2023/01/30 00:14:01;;;;;;;5.03;2.90;;;-0.20;99.90;;;;;;5054283;28;20417;-59
2023/01/30 00:16:28;;;;;;;7.32;3.88;;;-0.20;99.90;;;;;;5054186;28;20433;-59
2023/01/30 00:18:56;;;;;;;5.82;3.10;;;-0.20;99.90;;;;;;5053539;28;20427;-59
2023/01/30 00:21:24;;;;;;;4.75;3.08;;;-0.20;99.90;;;;;;5054249;28;20460;-59
2023/01/30 00:23:51;;;;;;;6.65;3.53;;;0.00;99.90;;;;;;5053843;28;20515;-60
2023/01/30 00:26:18;;;;;;;6.13;3.65;;;-0.20;99.90;;;;;;5054381;28;20863;-60
2023/01/30 00:28:46;;;;;;;6.57;3.63;;;-0.20;99.90;;;;;;5054878;28;20440;-59
2023/01/30 00:31:13;;;;;;;6.53;3.88;;;-0.10;99.90;;;;;;5054416;28;20429;-59
2023/01/30 00:33:40;;;;;;;7.15;4.82;;;0.00;99.90;;;;;;5057216;28;20421;-59
2023/01/30 00:36:09;;;;;;;5.38;3.47;;;-0.10;99.90;;;;;;5058020;28;20880;-59
2023/01/30 00:38:38;;;;;;;6.97;3.17;;;-0.10;99.90;;;;;;5057292;28;20910;-59
2023/01/30 00:41:05;;;;;;;6.95;3.45;;;0.00;99.90;;;;;;5056960;28;20479;-59
2023/01/30 00:49:11;;;;;;;6.88;4.00;;;-0.10;99.90;;;;;;5056988;28;20882;-59
2023/01/30 00:51:38;;;;;;;8.23;5.00;;;-0.10;99.90;;;;;;5057953;28;20465;-60
2023/01/30 00:54:07;;;;;;;7.00;4.50;;;-0.20;99.90;;;;;;5057138;28;20425;-59
2023/01/30 00:56:34;;;;;;;6.68;3.40;;;-0.20;99.90;;;;;;5057479;28;20795;-59
2023/01/30 00:59:01;;;;;;;7.38;3.88;;;-0.20;99.90;;;;;;5057271;28;20428;-59
2023/01/30 01:01:29;;;;;;;7.85;3.72;;;-0.30;99.90;;;;;;5056186;28;20522;-59
2023/01/30 01:03:56;;;;;;;6.22;3.60;;;-0.20;99.90;;;;;;5056316;28;20475;-59
2023/01/30 01:06:23;;;;;;;5.45;3.25;;;-0.10;99.90;;;;;;5055687;28;20482;-59
2023/01/30 01:08:50;;;;;;;8.23;3.80;;;0.10;99.90;;;;;;5055838;28;20722;-59
2023/01/30 01:11:24;;;;;;;6.57;3.60;;;0.20;99.90;;;;;;5056393;28;20451;-58
2023/01/30 01:13:53;;;;;;;4.15;2.92;;;0.40;99.90;;;;;;5055385;28;20426;-59
2023/01/30 01:16:20;;;;;;;5.45;3.25;;;0.50;99.90;;;;;;5054746;28;20429;-59
2023/01/30 01:18:48;;;;;;;5.70;2.60;;;0.70;99.90;;;;;;5053417;28;20508;-59
2023/01/30 01:21:15;;;;;;;5.50;3.08;;;1.10;99.90;;;;;;5057003;28;20456;-59
2023/01/30 01:23:42;;;;;;;6.97;3.90;;;1.40;99.90;;;;;;5056919;28;20512;-59
2023/01/30 01:26:10;;;;;;;5.32;2.95;;;1.30;99.90;;;;;;5054808;28;20430;-59
2023/01/30 01:28:38;;;;;;;6.50;4.28;;;1.10;99.90;;;;;;5056158;28;20920;-60
2023/01/30 01:31:10;;;;;;;4.43;2.42;;;0.70;99.90;;;;;;5056369;28;20429;-60
2023/01/30 01:33:38;;;;;;;5.60;3.38;;;0.60;99.90;;;;;;5056684;28;20445;-59
2023/01/30 01:36:06;;;;;;;5.63;3.67;;;0.90;99.90;;;;;;5057144;28;20424;-63
2023/01/30 01:38:34;;;;;;;5.30;3.25;;;0.80;99.90;;;;;;5056471;28;20486;-60
2023/01/30 01:41:04;;;;;;;5.78;3.42;;;1.00;99.90;;;;;;5056994;28;20729;-59
2023/01/30 01:43:34;;;;;;;6.03;3.40;;;0.80;99.90;;;;;;5055449;28;20417;-59
2023/01/30 01:46:08;;;;;;;4.80;3.20;;;0.80;99.90;;;;;;5056181;28;20517;-59
2023/01/30 01:48:39;;;;;;;3.90;2.88;;;0.70;99.90;;;;;;5056671;28;20465;-59
2023/01/30 01:51:10;;;;;;;7.10;3.80;;;0.40;99.90;;;;;;5056747;28;20549;-59
2023/01/30 01:53:42;;;;;;;6.40;3.17;;;0.30;99.90;;;;;;5056842;28;20421;-59
2023/01/30 01:56:13;;;;;;;4.65;3.40;;;0.30;99.90;;;;;;5056493;28;20495;-59
2023/01/30 01:58:46;;;;;;;7.20;3.67;;;0.20;99.90;;;;;;5056246;28;20739;-59
2023/01/30 02:01:15;;;;;;;4.90;3.10;;;0.20;99.90;;;;;;5056479;28;20794;-59
2023/01/30 02:03:47;;;;;;;5.18;3.30;;;0.40;99.90;;;;;;5056620;28;20439;-59
2023/01/30 02:06:16;;;;;;;5.82;3.63;;;0.60;99.90;;;;;;5056825;28;20417;-59
2023/01/30 02:08:48;;;;;;;6.25;3.72;;;0.50;99.90;;;;;;5056398;28;20920;-58
2023/01/30 02:11:21;;;;;;;5.82;3.72;;;0.50;99.90;;;;;;5054980;28;20443;-59
2023/01/30 02:13:49;;;;;;;7.07;3.78;;;0.50;99.90;;;;;;5055032;28;20733;-59
2023/01/30 02:16:18;;;;;;;6.70;3.20;;;0.40;99.90;;;;;;5054673;28;20857;-59
2023/01/30 02:18:47;;;;;;;3.70;2.78;;;0.30;99.90;;;;;;5054484;28;20417;-58
2023/01/30 02:21:54;;;;;;;6.00;3.28;;;0.30;99.90;;;;;;5053385;28;20441;-58
2023/01/30 02:24:57;;;;;;;6.30;3.75;;;0.50;99.90;;;;;;5054414;28;20429;-59
2023/01/30 02:27:56;;;;;;;5.00;2.92;;;0.40;99.90;;;;;;5055593;28;20891;-58
2023/01/30 02:31:05;;;;;;;4.82;3.53;;;0.30;99.90;;;;;;5055633;28;20921;-59
2023/01/30 02:33:40;;;;;;;5.95;3.60;;;0.20;99.90;;;;;;5035313;28;20430;-59
2023/01/30 02:36:16;;;;;;;7.47;3.95;;;0.10;99.90;;;;;;5054693;28;20433;-59
2023/01/30 02:38:50;;;;;;;7.47;4.30;;;0.00;99.90;;;;;;5054940;28;20416;-59
2023/01/30 02:41:25;;;;;;;5.85;3.25;;;-0.20;99.90;;;;;;5054351;28;20935;-60
2023/01/30 02:44:01;;;;;;;6.18;3.40;;;-0.30;99.90;;;;;;5053926;28;20468;-60
2023/01/30 02:46:38;;;;;;;6.55;4.22;;;-0.40;99.90;;;;;;5054068;28;20429;-59
2023/01/30 02:49:10;;;;;;;6.27;3.90;;;-0.20;99.90;;;;;;5053793;28;20934;-58
2023/01/30 02:51:39;;;;;;;7.80;3.50;;;-0.30;99.90;;;;;;5054448;28;20436;-59
2023/01/30 02:54:07;;;;;;;6.03;4.00;;;-0.40;99.90;;;;;;5054765;28;20421;-58
2023/01/30 02:56:51;;;;;;;7.55;4.13;;;-0.40;99.90;;;;;;5054510;28;20429;-59
2023/01/30 02:59:22;;;;;;;7.47;4.90;;;-0.50;99.90;;;;;;5055026;28;20464;-59
2023/01/30 03:02:21;;;;;;;6.45;4.03;;;-0.60;99.90;;;;;;5055462;28;20433;-59
2023/01/30 03:05:09;;;;;;;10.17;4.53;;;-0.70;99.90;;;;;;5055136;28;20461;-59
2023/01/30 03:07:45;;;;;;;8.27;4.30;;;-0.70;99.90;;;;;;5053759;28;20561;-59
2023/01/30 03:10:20;;;;;;;5.88;3.80;;;-0.70;99.90;;;;;;5054918;28;20844;-59
2023/01/30 03:12:53;;;;;;;9.40;4.65;;;-0.80;99.90;;;;;;5055158;28;20515;-59
2023/01/30 03:15:28;;;;;;;6.90;3.80;;;-0.80;99.90;;;;;;5054726;28;20718;-61
2023/01/30 03:17:57;;;;;;;7.50;4.00;;;-0.80;99.90;;;;;;5054949;28;20717;-60
2023/01/30 03:20:24;;;;;;;6.70;3.78;;;-0.70;99.90;;;;;;5055529;28;20512;-59
2023/01/30 03:22:53;;;;;;;7.53;3.65;;;-0.60;99.90;;;;;;5055563;28;20436;-60
2023/01/30 03:25:25;;;;;;;7.40;4.30;;;-0.60;99.90;;;;;;5054785;28;20421;-59
2023/01/30 03:27:55;;;;;;;6.68;3.17;;;-0.70;99.90;;;;;;5054615;28;20433;-59
2023/01/30 03:30:23;;;;;;;6.47;4.18;;;-0.70;99.90;;;;;;5055051;28;20465;-59
2023/01/30 03:32:50;;;;;;;6.53;2.90;;;-0.70;99.90;;;;;;5055198;28;20524;-59
2023/01/30 03:35:19;;;;;;;8.38;3.70;;;-0.70;99.90;;;;;;5055038;28;20425;-59
2023/01/30 03:37:47;;;;;;;6.82;4.28;;;-0.70;99.90;;;;;;5054813;28;20475;-59
2023/01/30 03:40:16;;;;;;;6.22;3.65;;;-0.70;99.90;;;;;;5054363;28;20516;-59
2023/01/30 03:42:43;;;;;;;8.13;3.38;;;-0.70;99.90;;;;;;5053510;28;20429;-59
2023/01/30 03:45:11;;;;;;;5.93;3.70;;;-0.60;99.90;;;;;;5053806;28;20878;-59
2023/01/30 03:47:38;;;;;;;6.72;3.40;;;-0.50;99.90;;;;;;5054111;28;20461;-59
2023/01/30 03:50:06;;;;;;;4.97;2.95;;;-0.40;99.90;;;;;;5054325;28;20425;-59
2023/01/30 03:52:36;;;;;;;6.82;3.20;;;-0.50;99.90;;;;;;5054752;28;20721;-59
2023/01/30 03:55:04;;;;;;;4.83;3.10;;;-0.40;99.90;;;;;;5054464;28;20780;-59
2023/01/30 03:57:32;;;;;;;6.82;3.00;;;-0.20;99.90;;;;;;5055158;28;20474;-58
2023/01/30 03:59:59;;;;;;;5.45;3.20;;;-0.30;99.90;;;;;;5053878;28;20503;-58
2023/01/30 04:02:26;;;;;;;6.60;2.80;;;-0.20;99.90;;;;;;5054204;28;20471;-59
2023/01/30 04:04:53;;;;;;;7.90;3.33;;;-0.30;99.90;;;;;;5054552;28;20428;-59
2023/01/30 04:07:20;;;;;;;5.63;3.00;;;-0.40;99.90;;;;;;5055972;28;20431;-59
2023/01/30 04:09:49;;;;;;;5.68;2.60;;;-0.40;99.90;;;;;;5058328;28;20742;-59
2023/01/30 04:12:16;;;;;;;5.85;3.03;;;-0.30;99.90;;;;;;5058734;28;20429;-59
2023/01/30 04:14:43;;;;;;;5.43;2.22;;;-0.20;99.90;;;;;;5058560;28;20428;-59
2023/01/30 04:17:10;;;;;;;3.67;2.20;;;-0.10;99.90;;;;;;5058011;28;20512;-59
2023/01/30 04:19:38;;;;;;;5.20;2.50;;;0.20;99.90;;;;;;5057871;28;20616;-59
2023/01/30 04:22:05;;;;;;;6.10;2.53;;;0.20;99.90;;;;;;5057593;28;20520;-59
2023/01/30 04:24:32;;;;;;;4.88;2.00;;;0.30;99.90;;;;;;5057562;28;20476;-59
2023/01/30 04:27:01;;;;;;;5.10;1.80;;;0.40;99.90;;;;;;5057556;28;20558;-58
2023/01/30 04:29:28;;;;;;;4.35;2.10;;;0.40;99.90;;;;;;5057589;28;20439;-59
2023/01/30 04:31:55;;;;;;;4.75;2.40;;;0.50;99.90;;;;;;5057864;28;20519;-59
2023/01/30 04:34:22;;;;;;;4.70;2.15;;;0.40;99.90;;;;;;5057749;28;20421;-59
2023/01/30 04:36:49;;;;;;;3.92;1.70;;;0.50;99.90;;;;;;5058142;28;20527;-59
2023/01/30 04:39:17;;;;;;;3.60;2.10;;;0.50;99.90;;;;;;5058180;28;20436;-60
2023/01/30 04:41:44;;;;;;;5.05;2.17;;;0.50;99.90;;;;;;5057992;28;20736;-58
2023/01/30 04:44:12;;;;;;;4.40;2.35;;;0.40;99.90;;;;;;5057484;28;20451;-59
2023/01/30 04:46:40;;;;;;;4.75;2.10;;;0.50;99.90;;;;;;5058089;28;20433;-59
2023/01/30 04:49:07;;;;;;;3.80;1.90;;;0.50;99.90;;;;;;5057791;28;20444;-60
2023/01/30 04:51:34;;;;;;;4.80;2.20;;;0.70;99.90;;;;;;5057964;28;20436;-59
2023/01/30 04:54:01;;;;;;;5.10;2.20;;;0.70;99.90;;;;;;5057545;28;20797;-59
2023/01/30 04:56:28;;;;;;;4.93;2.25;;;0.70;99.90;;;;;;5057307;28;20520;-60
2023/01/30 04:58:56;;;;;;;5.85;2.28;;;0.70;99.90;;;;;;5055856;28;20439;-59
2023/01/30 05:01:29;;;;;;;4.87;1.60;;;0.60;99.90;;;;;;5057156;28;20508;-59
2023/01/30 05:03:57;;;;;;;3.90;2.00;;;0.60;99.90;;;;;;5057031;28;20421;-59
2023/01/30 05:06:24;;;;;;;4.43;2.00;;;0.60;99.90;;;;;;5057424;28;20520;-59
2023/01/30 05:08:52;;;;;;;3.78;1.80;;;0.60;99.90;;;;;;5057491;28;20744;-59
2023/01/30 05:11:20;;;;;;;6.10;2.00;;;0.60;99.90;;;;;;5057081;28;20828;-59
2023/01/30 05:13:48;;;;;;;3.15;1.70;;;0.60;99.90;;;;;;5057193;28;20513;-59
2023/01/30 05:16:16;;;;;;;3.58;1.70;;;0.60;99.90;;;;;;5056118;28;20764;-59
2023/01/30 05:18:45;;;;;;;2.97;1.73;;;0.60;99.90;;;;;;5054937;28;20424;-59
2023/01/30 05:21:14;;;;;;;4.20;1.40;;;0.70;99.90;;;;;;5055954;28;20523;-59
2023/01/30 05:23:42;;;;;;;3.72;2.05;;;0.90;99.90;;;;;;5056443;28;20717;-59
2023/01/30 05:26:09;;;;;;;3.83;2.10;;;0.80;99.90;;;;;;5056629;28;20433;-59
2023/01/30 05:28:37;;;;;;;4.05;2.10;;;0.80;99.90;;;;;;5057118;28;20729;-57
2023/01/30 05:31:05;;;;;;;4.32;2.15;;;0.70;99.90;;;;;;5055890;28;20436;-58
2023/01/30 05:33:33;;;;;;;4.10;1.80;;;0.90;99.90;;;;;;5055466;28;20431;-58
2023/01/30 05:36:01;;;;;;;4.13;2.08;;;0.80;99.90;;;;;;5056805;28;20540;-58
2023/01/30 05:38:29;;;;;;;3.03;1.50;;;0.90;99.90;;;;;;5056938;28;20413;-56
2023/01/30 05:41:00;;;;;;;3.53;1.75;;;0.80;99.90;;;;;;5056442;28;20844;-56
2023/01/30 05:43:28;;;;;;;3.90;1.70;;;0.70;99.90;;;;;;5056149;28;20422;-57
2023/01/30 05:45:56;;;;;;;4.03;1.70;;;0.90;99.90;;;;;;5053904;28;20515;-57
2023/01/30 05:48:24;;;;;;;3.90;1.77;;;0.90;99.90;;;;;;5055761;28;20443;-58
2023/01/30 05:50:52;;;;;;;3.92;1.60;;;1.00;99.90;;;;;;5055377;28;20464;-55
2023/01/30 05:53:22;;;;;;;4.30;1.60;;;0.80;99.90;;;;;;5055779;28;20421;-57
2023/01/30 05:55:55;;;;;;;3.10;1.63;;;0.80;99.90;;;;;;5055931;28;20803;-57
2023/01/30 05:58:22;;;;;;;3.70;2.10;;;0.70;99.90;;;;;;5055267;28;20846;-57
2023/01/30 06:00:50;;;;;;;4.20;1.98;;;0.80;99.90;;;;;;5054472;28;20429;-58
2023/01/30 06:03:17;;;;;;;5.35;1.85;;;0.80;99.90;;;;;;5055356;28;20421;-57
2023/01/30 06:05:45;;;;;;;4.85;1.80;;;1.00;99.90;;;;;;5056017;28;20429;-57
2023/01/30 06:08:12;;;;;;;3.13;1.70;;;1.00;99.90;;;;;;5056313;28;20421;-57
2023/01/30 06:10:41;;;;;;;3.00;1.60;;;0.90;99.90;;;;;;5055758;28;20792;-58
2023/01/30 06:13:09;;;;;;;2.75;1.90;;;0.90;99.90;;;;;;5054062;28;20789;-58
2023/01/30 06:15:37;;;;;;;3.33;1.60;;;1.10;99.90;;;;;;5052468;28;20421;-58
2023/01/30 06:18:04;;;;;;;3.10;1.60;;;1.00;99.90;;;;;;5051359;28;20420;-57
2023/01/30 06:20:31;;;;;;;2.92;1.48;;;1.00;99.90;;;;;;5052577;28;20423;-57
2023/01/30 06:22:58;;;;;;;3.83;2.00;;;1.10;99.90;;;;;;5052668;28;20421;-58
2023/01/30 06:25:26;;;;;;;4.20;2.28;;;1.00;99.90;;;;;;5051782;28;20421;-58
2023/01/30 06:27:54;;;;;;;3.30;1.70;;;0.80;99.90;;;;;;5050108;28;20814;-58
2023/01/30 06:30:22;;;;;;;3.00;1.80;;;0.90;99.90;;;;;;5052081;28;20455;-56
2023/01/30 06:32:50;;;;;;;3.20;1.60;;;0.90;99.90;;;;;;5054534;28;20437;-57
2023/01/30 06:35:18;;;;;;;5.03;1.80;;;1.20;99.90;;;;;;5053354;28;20425;-58
2023/01/30 06:37:45;;;;;;;4.13;1.80;;;1.10;99.90;;;;;;5053302;28;20521;-56
2023/01/30 06:40:13;;;;;;;4.05;1.90;;;1.00;99.90;;;;;;5054067;28;20415;-58
2023/01/30 06:42:45;;;;;;;4.47;2.30;;;1.00;99.90;;;;;;5054117;28;20425;-57
2023/01/30 06:45:14;;;;;;;2.97;1.60;;;1.10;99.90;;;;;;5052393;28;20413;-58
2023/01/30 06:47:48;;;;;;;5.18;2.50;;;1.20;99.90;;;;;;5054498;28;20435;-56
2023/01/30 06:50:16;;;;;;;2.97;1.50;;;1.10;99.90;;;;;;5054615;28;20898;-57
2023/01/30 06:52:45;;;;;;;4.30;1.83;;;1.10;99.90;;;;;;5054156;28;20439;-57
2023/01/30 06:55:14;;;;;;;4.60;1.90;;;1.20;99.90;;;;;;5053311;28;20512;-56
2023/01/30 06:57:42;;;;;;;3.47;1.55;;;1.10;99.90;;;;;;5053426;28;20468;-57
2023/01/30 07:00:11;;;;;;;4.28;2.00;;;1.20;99.90;;;;;;5051221;28;20829;-58
2023/01/30 07:02:40;;;;;;;5.13;1.90;;;1.10;99.90;;;;;;5052874;28;20576;-58
2023/01/30 07:05:08;;;;;;;2.97;1.70;;;1.30;99.90;;;;;;5052556;28;20423;-57
2023/01/30 07:07:36;;;;;;;2.60;1.48;;;1.30;99.90;;;;;;5050837;28;20464;-56
2023/01/30 07:10:07;;;;;;;3.08;1.60;;;1.50;99.90;;;;;;5057679;28;20520;-58
2023/01/30 07:12:35;;;;;;;4.50;1.98;;;1.40;99.90;;;;;;5063171;28;20738;-57
2023/01/30 07:15:02;;;;;;;3.60;1.60;;;1.40;99.90;;;;;;5064886;28;20857;-56
2023/01/30 07:17:29;;;;;;;2.95;1.60;;;1.30;99.90;;;;;;5065052;28;20848;-56
2023/01/30 07:19:58;;;;;;;3.35;1.67;;;1.30;99.90;;;;;;5056447;28;20455;-57
2023/01/30 07:22:25;;;;;;;4.30;1.80;;;1.30;99.90;;;;;;5066992;28;20526;-56
2023/01/30 07:24:52;;;;;;;3.47;1.65;;;1.30;99.90;;;;;;5067086;28;20454;-53
2023/01/30 07:27:19;;;;;;;3.67;1.38;;;1.30;99.90;;;;;;5067400;28;20872;-57
2023/01/30 07:29:47;;;;;;;3.05;1.60;;;1.20;99.90;;;;;;5067402;28;20930;-55
2023/01/30 07:32:17;;;;;;;3.08;1.65;;;1.20;99.90;;;;;;5055944;28;20755;-56
2023/01/30 07:34:44;;;;;;;3.63;1.52;;;1.30;99.90;;;;;;5064589;28;20490;-54
2023/01/30 07:37:13;;;;;;;1.92;1.30;;;1.30;99.90;;;;;;5060739;28;20893;-52
2023/01/30 07:39:40;;;;;;;3.70;2.00;;;1.40;99.90;;;;;;5072654;28;20507;-54
2023/01/30 07:42:07;;;;;;;3.03;1.63;;;1.40;99.90;;;;;;5056745;28;20433;-55
2023/01/30 07:44:34;;;;;;;3.30;1.60;;;1.30;99.90;;;;;;5056586;28;20693;-54
2023/01/30 07:47:02;;;;;;;3.42;1.70;;;1.30;99.90;;;;;;5071402;28;20541;-56
2023/01/30 07:49:29;;;;;;;3.40;1.45;;;1.40;99.90;;;;;;5070845;28;20739;-53
2023/01/30 07:51:56;;;;;;;2.67;1.30;;;1.40;99.90;;;;;;5063801;28;20461;-55
2023/01/30 07:54:25;;;;;;;3.00;1.50;;;1.40;99.90;;;;;;5064173;28;20432;-55
2023/01/30 07:56:52;;;;;;;2.58;1.30;;;1.40;99.90;;;;;;5070708;28;20618;-56
2023/01/30 07:59:20;;;;;;;3.50;1.40;;;1.50;99.90;;;;;;5068653;28;20431;-55
2023/01/30 08:01:47;;;;;;;2.92;1.40;;;1.50;99.90;;;;;;5060415;28;20578;-54
2023/01/30 08:04:14;;;;;;;3.08;1.40;;;1.50;99.90;;;;;;5050851;28;20436;-55
2023/01/30 08:06:41;;;;;;;2.97;1.30;;;1.50;99.90;;;;;;5069812;28;20740;-53
2023/01/30 08:09:08;;;;;;;4.03;1.60;;;1.50;99.90;;;;;;5067728;28;20986;-54
2023/01/30 08:11:37;;;;;;;3.53;1.60;;;1.50;99.90;;;;;;5067832;28;20435;-53
2023/01/30 08:14:04;;;;;;;2.50;1.30;;;1.50;99.90;;;;;;5070910;28;20431;-54
2023/01/30 08:16:32;;;;;;;3.27;1.60;;;1.50;99.90;;;;;;5058801;28;20846;-50
2023/01/30 08:19:00;;;;;;;3.20;1.30;;;1.50;99.90;;;;;;5057010;28;20436;-55
2023/01/30 08:21:27;;;;;;;2.88;1.45;;;1.60;99.90;;;;;;5059539;28;20768;-54
2023/01/30 08:23:54;;;;;;;2.60;1.30;;;1.70;99.90;;;;;;5061151;28;20440;-53
2023/01/30 08:26:21;;;;;;;3.60;1.40;;;1.70;99.90;;;;;;5054055;28;20430;-53
2023/01/30 08:28:50;;;;;;;2.40;1.30;;;1.70;99.90;;;;;;5066752;28;20457;-51
2023/01/30 08:31:17;;;;;;;1.83;1.30;;;1.70;99.90;;;;;;5051250;28;20726;-55
2023/01/30 08:33:45;;;;;;;3.03;1.45;;;1.60;99.90;;;;;;5065221;28;20433;-55
2023/01/30 08:36:12;;;;;;;2.50;1.40;;;1.60;99.90;;;;;;5071197;28;20801;-54
2023/01/30 08:38:39;;;;;;;2.80;1.40;;;1.60;99.90;;;;;;5065918;28;20437;-56
2023/01/30 08:41:08;;;;;;;2.60;1.40;;;1.50;99.90;;;;;;5052265;28;20429;-54
2023/01/30 08:43:36;;;;;;;2.95;1.50;;;1.50;99.90;;;;;;5069552;28;20899;-53
2023/01/30 08:46:04;;;;;;;3.20;1.50;;;1.50;99.90;;;;;;5071735;28;20430;-54
2023/01/30 08:48:32;;;;;;;2.70;1.40;;;1.60;99.90;;;;;;5068103;28;20438;-52
2023/01/30 08:51:00;;;;;;;3.00;1.20;;;1.60;99.90;;;;;;5070954;28;20646;-51
2023/01/30 08:53:27;;;;;;;2.92;1.33;;;1.60;99.90;;;;;;5072666;28;20522;-49
2023/01/30 08:55:54;;;;;;;2.20;1.30;;;1.80;99.90;;;;;;5067921;28;20439;-52
2023/01/30 08:58:22;;;;;;;2.58;1.20;;;1.90;99.90;;;;;;5063692;28;20427;-50
2023/01/30 09:00:49;;;;;;;2.17;1.20;;;1.90;99.90;;;;;;5069259;28;20430;-55
2023/01/30 09:03:18;;;;;;;2.83;1.40;;;1.90;99.90;;;;;;5067825;28;20783;-53
2023/01/30 09:05:46;;;;;;;2.70;1.30;;;2.10;99.90;;;;;;5065980;28;20441;-54
2023/01/30 09:08:13;;;;;;;2.50;1.40;;;2.20;99.90;;;;;;5067583;28;20951;-53
2023/01/30 09:10:40;;;;;;;4.35;1.50;;;2.30;99.90;;;;;;5066645;28;20464;-55
2023/01/30 09:13:09;;;;;;;2.45;1.13;;;2.40;99.90;;;;;;5069204;28;20865;-54
2023/01/30 09:15:36;;;;;;;2.45;1.35;;;2.40;99.90;;;;;;5062561;28;20529;-54
2023/01/30 09:18:04;;;;;;;2.10;1.20;;;2.50;99.90;;;;;;5068966;28;20758;-52
2023/01/30 09:20:33;;;;;;;1.83;1.00;;;2.60;99.90;;;;;;5071324;28;20431;-54
2023/01/30 09:23:01;;;;;;;2.50;1.20;;;2.80;99.90;;;;;;5074051;28;20730;-53
2023/01/30 09:25:28;;;;;;;2.90;1.30;;;2.80;99.90;;;;;;5073740;28;20510;-53
2023/01/30 09:27:55;;;;;;;2.83;1.40;;;2.90;99.90;;;;;;5068756;28;20487;-52
2023/01/30 09:30:23;;;;;;;3.10;1.10;;;2.90;99.90;;;;;;5056706;28;20443;-53
2023/01/30 09:32:50;;;;;;;2.17;1.10;;;2.80;99.90;;;;;;5067993;28;20529;-54
2023/01/30 09:35:17;;;;;;;2.65;1.02;;;3.00;99.90;;;;;;5059430;28;20407;-56
2023/01/30 09:37:50;;;;;;;1.95;1.05;;;3.00;99.90;;;;;;5054800;28;20457;-53
2023/01/30 09:40:19;;;;;;;1.60;0.80;;;3.20;99.90;;;;;;5052759;28;20580;-55
2023/01/30 09:43:11;;;;;;;1.40;0.90;;;3.20;99.90;;;;;;5051441;28;20474;-56
2023/01/30 09:45:44;;;;;;;1.60;0.90;;;3.30;99.90;;;;;;5051584;28;20405;-55
2023/01/30 09:48:19;;;;;;;1.80;0.77;;;3.60;99.90;;;;;;5056772;28;20581;-55
2023/01/30 09:51:14;;;;;;;1.23;0.70;;;3.70;99.90;;;;;;5072927;28;20432;-54
2023/01/30 09:53:59;;;;;;;1.58;0.80;;;3.80;99.90;;;;;;5064916;28;20427;-55
2023/01/30 09:56:26;;;;;;;1.40;0.80;;;3.90;99.90;;;;;;5052609;28;20461;-54
2023/01/30 09:58:57;;;;;;;1.80;0.90;;;3.90;99.90;;;;;;5050762;28;20417;-56
2023/01/30 10:01:31;;;;;;;1.50;0.70;;;3.90;99.90;;;;;;5052862;28;20720;-56
2023/01/30 10:04:15;;;;;;;3.60;0.90;;;4.00;99.90;;;;;;5055755;28;20444;-54
2023/01/30 10:06:55;;;;;;;2.40;0.80;;;3.90;99.90;;;;;;5057827;28;20508;-56
2023/01/30 10:09:33;;;;;;;1.40;0.80;;;3.80;99.90;;;;;;5066094;28;20466;-59
2023/01/30 10:12:17;;;;;;;2.20;0.80;;;3.80;99.90;;;;;;5072656;28;20968;-57
2023/01/30 10:14:59;;;;;;;2.00;0.80;;;3.80;99.90;;;;;;5073025;28;20462;-54
2023/01/30 10:17:51;;;;;;;1.63;0.73;;;3.80;99.90;;;;;;5065466;28;21019;-59
2023/01/30 10:20:45;;;;;;;1.27;0.70;;;4.10;99.90;;;;;;5054443;28;20518;-58
2023/01/30 10:23:33;;;;;;;1.20;0.70;;;4.30;99.90;;;;;;5063741;28;20515;-58
2023/01/30 10:26:09;;;;;;;1.80;0.70;;;4.50;99.90;;;;;;5062639;28;20529;-58
2023/01/30 10:28:42;;;;;;;1.60;0.70;;;4.40;99.90;;;;;;5069521;28;20534;-57
2023/01/30 10:31:13;;;;;;;1.40;0.50;;;4.50;99.90;;;;;;5064022;28;20443;-58
2023/01/30 10:33:44;;;;;;;1.08;0.60;;;4.50;99.90;;;;;;5065148;28;20530;-58
2023/01/30 10:36:14;;;;;;;1.73;0.60;;;4.60;99.90;;;;;;5062980;28;20549;-58
2023/01/30 10:38:46;;;;;;;1.25;0.60;;;4.60;99.90;;;;;;5069391;28;20422;-59
2023/01/30 10:41:24;;;;;;;1.30;0.60;;;4.70;99.90;;;;;;5063052;28;20555;-57
2023/01/30 10:43:59;;;;;;;1.67;0.70;;;4.60;99.90;;;;;;5064252;28;21003;-57
2023/01/30 10:46:41;;;;;;;1.00;0.60;;;4.60;99.90;;;;;;5055848;28;20443;-58
2023/01/30 10:49:17;;;;;;;2.17;0.80;;;4.60;99.90;;;;;;5058313;28;20427;-58
2023/01/30 10:51:55;;;;;;;1.60;0.70;;;4.70;99.90;;;;;;5050834;28;20522;-58
2023/01/30 10:54:28;;;;;;;1.70;0.52;;;4.70;99.90;;;;;;5053183;28;20451;-57
2023/01/30 10:57:03;;;;;;;0.93;0.60;;;4.70;99.90;;;;;;5067149;28;20468;-57
2023/01/30 10:59:45;;;;;;;1.40;0.50;;;4.80;99.90;;;;;;5067670;28;20507;-58
2023/01/30 11:02:25;;;;;;;1.10;0.50;;;4.90;99.90;;;;;;5050292;28;20461;-58
2023/01/30 11:04:58;;;;;;;0.80;0.50;;;5.10;99.90;;;;;;5049332;28;20444;-58
2023/01/30 11:07:25;;;;;;;2.00;0.50;;;5.00;99.90;;;;;;5064537;28;20514;-59
2023/01/30 11:09:52;;;;;;;1.70;0.50;;;4.90;99.90;;;;;;5059218;28;20439;-57
2023/01/30 11:12:22;;;;;;;0.80;0.40;;;4.90;99.90;;;;;;5050198;28;20525;-58
2023/01/30 11:14:53;;;;;;;1.00;0.50;;;5.10;99.90;;;;;;5055095;28;20478;-57
2023/01/30 11:17:28;;;;;;;1.08;0.50;;;5.00;99.90;;;;;;5065327;28;20445;-59
2023/01/30 11:19:57;;;;;;;1.13;0.50;;;4.90;99.90;;;;;;5061557;28;20438;-58
2023/01/30 11:22:26;;;;;;;0.80;0.50;;;4.80;99.90;;;;;;5063738;28;20543;-59
2023/01/30 11:25:01;;;;;;;2.42;0.90;;;4.80;99.90;;;;;;5069016;28;20474;-58
2023/01/30 11:27:31;;;;;;;1.13;0.60;;;4.90;99.90;;;;;;5060478;28;20966;-58
2023/01/30 11:30:12;;;;;;;1.00;0.50;;;4.90;99.90;;;;;;5064488;28;20435;-58
2023/01/30 11:32:39;;;;;;;1.60;0.60;;;4.80;99.90;;;;;;5057298;28;20459;-58
2023/01/30 11:35:23;;;;;;;1.20;0.60;;;4.90;99.90;;;;;;5049752;28;20424;-58
2023/01/30 11:37:52;;;;;;;1.30;0.70;;;4.80;99.90;;;;;;5049937;28;20429;-58
2023/01/30 11:40:29;;;;;;;1.50;0.70;;;4.60;99.90;;;;;;5068992;28;20511;-59
2023/01/30 11:43:04;;;;;;;2.10;0.80;;;4.50;99.90;;;;;;5062732;28;20844;-55
2023/01/30 11:45:36;;;;;;;1.40;0.80;;;4.30;99.90;;;;;;5055249;28;20504;-56
2023/01/30 11:48:07;;;;;;;1.60;0.90;;;4.20;99.90;;;;;;5060475;28;20530;-58
2023/01/30 11:50:40;;;;;;;2.22;0.93;;;4.20;99.90;;;;;;5069373;28;20428;-57
2023/01/30 11:53:24;;;;;;;1.35;0.70;;;4.10;99.90;;;;;;5070440;28;20420;-55
2023/01/30 11:55:51;;;;;;;1.77;0.70;;;3.90;99.90;;;;;;5063992;28;20634;-57
2023/01/30 11:58:20;;;;;;;1.90;0.90;;;3.80;99.90;;;;;;5069435;28;20423;-57
2023/01/30 12:00:49;;;;;;;1.70;0.90;;;3.70;99.90;;;;;;5070193;28;20439;-55
2023/01/30 12:03:19;;;;;;;1.60;0.80;;;3.80;99.90;;;;;;5069504;28;20419;-58
2023/01/30 12:05:47;;;;;;;1.38;0.77;;;3.60;99.90;;;;;;5069688;28;20742;-55
2023/01/30 12:08:25;;;;;;;1.70;0.70;;;3.70;99.90;;;;;;5071645;28;20426;-56
2023/01/30 12:10:54;;;;;;;1.70;0.80;;;3.70;99.90;;;;;;5061180;28;20463;-54
2023/01/30 12:13:31;;;;;;;1.60;0.90;;;3.60;99.90;;;;;;5060044;28;20425;-56
2023/01/30 12:16:19;;;;;;;1.88;0.80;;;3.60;99.90;;;;;;5064716;28;20847;-57
2023/01/30 12:18:54;;;;;;;1.50;0.80;;;3.70;99.90;;;;;;5050401;28;20514;-53
2023/01/30 12:21:32;;;;;;;1.52;0.80;;;3.70;99.90;;;;;;5054568;28;20438;-54
2023/01/30 12:24:11;;;;;;;1.05;0.70;;;3.50;99.90;;;;;;5062752;28;20427;-56
2023/01/30 12:26:46;;;;;;;2.42;0.90;;;3.40;99.90;;;;;;5055926;28;20837;-53
2023/01/30 12:29:24;;;;;;;3.30;0.73;;;3.40;99.90;;;;;;5057785;28;20430;-54
2023/01/30 12:31:59;;;;;;;1.45;0.90;;;3.40;99.90;;;;;;5064630;28;20438;-55
2023/01/30 12:34:27;;;;;;;1.30;0.70;;;3.50;99.90;;;;;;5073385;28;21042;-53
2023/01/30 12:37:01;;;;;;;1.20;0.80;;;3.40;99.90;;;;;;5076178;28;20431;-56
2023/01/30 12:39:42;;;;;;;1.30;0.80;;;3.60;99.90;;;;;;5075735;28;20419;-56
2023/01/30 12:42:24;;;;;;;1.70;0.90;;;3.60;99.90;;;;;;5075686;28;20557;-53
2023/01/30 12:45:02;;;;;;;1.30;0.80;;;3.70;99.90;;;;;;5073588;28;20445;-56
2023/01/30 12:47:41;;;;;;;1.30;0.80;;;3.60;99.90;;;;;;5073752;28;20423;-54
2023/01/30 12:50:33;;;;;;;1.63;0.70;;;3.50;99.90;;;;;;5074060;28;20465;-51
2023/01/30 12:53:25;;;;;;;1.80;0.90;;;3.60;99.90;;;;;;5068862;28;20467;-56
2023/01/30 12:56:17;;;;;;;1.50;0.80;;;3.70;99.90;;;;;;5068486;28;20470;-53
2023/01/30 12:58:50;;;;;;;1.20;0.70;;;3.60;99.90;;;;;;5066846;28;20439;-56
2023/01/30 13:01:26;;;;;;;2.80;0.80;;;3.50;99.90;;;;;;5068822;28;20839;-55
2023/01/30 13:04:02;;;;;;;2.10;0.90;;;3.60;99.90;;;;;;5055914;28;20479;-55
2023/01/30 13:06:54;;;;;;;1.80;0.80;;;3.60;99.90;;;;;;5065726;28;20770;-56
2023/01/30 13:09:41;;;;;;;1.40;0.80;;;3.60;99.90;;;;;;5061180;28;20531;-57
2023/01/30 13:12:16;;;;;;;1.38;0.80;;;3.70;99.90;;;;;;5058522;28;20526;-53
2023/01/30 13:14:50;;;;;;;1.20;0.70;;;3.70;99.90;;;;;;5053971;28;20421;-56
2023/01/30 13:17:33;;;;;;;1.50;0.80;;;3.70;99.90;;;;;;5073302;28;20439;-55
2023/01/30 13:20:08;;;;;;;1.40;0.77;;;3.60;99.90;;;;;;5074333;28;20530;-56
2023/01/30 13:22:41;;;;;;;1.08;0.60;;;3.60;99.90;;;;;;5070191;28;20504;-50